Time;durP1;ratioP1;P1;durP2;ratioP2;P2;SDS_P1;SDS_P2;PMS_P1;PMS_P2;Temp;Humidity;BMP_temperature;BMP_pressure;BME280_temperature;BME280_humidity;BME280_pressure;Samples;Min_cycle;Max_cycle;Signal;HPM_P1;HPM_P2
2023/01/29 00:01:18;;;;;;;9.07;4.70;;;0.50;1.00;;;;;;6097474;23;20700;-89
2023/01/29 00:03:50;;;;;;;8.07;4.87;;;0.50;1.00;;;;;;6097409;23;20171;-90
2023/01/29 00:06:17;;;;;;;6.40;4.20;;;0.50;1.00;;;;;;6097085;23;20224;-89
2023/01/29 00:08:44;;;;;;;9.30;4.50;;;0.50;1.00;;;;;;6099239;23;20176;-90
2023/01/29 00:11:11;;;;;;;7.30;4.00;;;0.50;1.00;;;;;;6099312;23;20234;-89
2023/01/29 00:13:38;;;;;;;6.60;3.43;;;0.40;1.00;;;;;;6098862;23;20199;-90
2023/01/29 00:16:05;;;;;;;5.87;4.00;;;0.40;1.00;;;;;;6099036;23;20177;-89
2023/01/29 00:18:32;;;;;;;7.40;4.00;;;0.30;1.00;;;;;;6099532;23;20180;-89
2023/01/29 00:21:00;;;;;;;6.57;3.73;;;0.30;1.00;;;;;;6099176;23;20250;-89
2023/01/29 00:23:27;;;;;;;6.57;3.77;;;0.40;1.00;;;;;;6099301;23;20490;-88
2023/01/29 00:25:54;;;;;;;6.20;3.40;;;0.50;1.00;;;;;;6098868;23;20240;-90
2023/01/29 00:28:21;;;;;;;6.00;3.70;;;0.50;1.00;;;;;;6098972;23;20180;-89
2023/01/29 00:30:48;;;;;;;6.83;3.70;;;0.60;1.00;;;;;;6099429;23;20207;-89
2023/01/29 00:33:15;;;;;;;7.37;3.70;;;0.60;1.00;;;;;;6099068;23;20189;-89
2023/01/29 00:35:42;;;;;;;6.63;3.53;;;0.70;1.00;;;;;;6099145;23;20227;-89
2023/01/29 00:38:10;;;;;;;7.83;3.47;;;0.80;1.00;;;;;;6099136;23;20236;-89
2023/01/29 00:46:07;;;;;;;6.43;3.73;;;0.90;1.00;;;;;;6099208;23;20493;-89
2023/01/29 00:48:35;;;;;;;6.07;3.30;;;0.90;1.00;;;;;;6099047;23;20564;-89
2023/01/29 00:51:02;;;;;;;5.30;3.40;;;0.90;1.00;;;;;;6098988;23;20176;-89
2023/01/29 00:53:30;;;;;;;6.63;3.70;;;0.90;1.00;;;;;;6099106;23;20221;-89
2023/01/29 00:55:57;;;;;;;4.07;2.90;;;0.90;1.00;;;;;;6099043;23;20180;-88
2023/01/29 00:58:32;;;;;;;5.97;3.87;;;0.90;1.00;;;;;;6098787;23;20209;-89
2023/01/29 01:01:01;;;;;;;6.27;3.60;;;1.00;1.00;;;;;;6098721;23;20186;-89
2023/01/29 01:03:27;;;;;;;7.13;3.80;;;0.90;1.00;;;;;;6098487;23;20171;-89
2023/01/29 01:06:05;;;;;;;8.27;3.73;;;0.90;1.00;;;;;;6098937;23;20177;-90
2023/01/29 01:11:33;;;;;;;5.93;3.70;;;0.70;1.00;;;;;;6010715;23;20174;-89
2023/01/29 01:14:01;;;;;;;6.37;4.07;;;0.60;1.00;;;;;;6010779;23;20174;-90
2023/01/29 01:16:27;;;;;;;8.37;4.00;;;0.60;1.00;;;;;;6010567;23;20174;-89
2023/01/29 01:18:54;;;;;;;5.80;3.80;;;0.70;1.00;;;;;;6010121;23;20182;-89
2023/01/29 01:21:21;;;;;;;8.70;4.20;;;0.70;1.00;;;;;;6010351;23;20633;-90
2023/01/29 01:23:50;;;;;;;7.67;4.03;;;0.80;1.00;;;;;;6010429;23;20267;-89
2023/01/29 01:26:17;;;;;;;6.97;3.50;;;0.80;1.00;;;;;;6010602;23;20536;-89
2023/01/29 01:28:45;;;;;;;10.63;3.63;;;0.80;1.00;;;;;;6010549;23;20560;-89
2023/01/29 01:31:14;;;;;;;6.80;4.13;;;0.90;1.00;;;;;;6010564;23;20178;-89
2023/01/29 01:33:41;;;;;;;7.70;3.97;;;0.90;1.00;;;;;;6010208;23;20201;-89
2023/01/29 01:36:08;;;;;;;6.50;4.20;;;0.90;1.00;;;;;;6010627;23;20180;-89
2023/01/29 01:38:43;;;;;;;6.17;3.80;;;1.00;1.00;;;;;;6010663;23;20206;-90
2023/01/29 01:41:12;;;;;;;6.83;3.87;;;1.00;1.00;;;;;;6010343;23;20174;-89
2023/01/29 01:43:50;;;;;;;7.73;4.20;;;1.00;1.00;;;;;;6097469;23;20201;-89
2023/01/29 01:46:18;;;;;;;5.70;3.70;;;1.00;1.00;;;;;;6098592;23;20181;-89
2023/01/29 01:48:46;;;;;;;7.43;4.53;;;1.00;1.00;;;;;;6098473;23;20223;-89
2023/01/29 01:51:15;;;;;;;6.37;4.23;;;1.00;1.00;;;;;;6098226;23;20685;-89
2023/01/29 01:53:49;;;;;;;8.63;4.60;;;1.10;1.00;;;;;;6098049;23;20224;-90
2023/01/29 01:56:21;;;;;;;9.47;4.80;;;1.00;1.00;;;;;;6098277;23;20595;-90
2023/01/29 01:58:53;;;;;;;9.70;5.40;;;1.00;1.00;;;;;;6098521;23;20170;-88
2023/01/29 02:01:26;;;;;;;8.90;4.80;;;1.00;1.00;;;;;;6098568;23;20157;-90
2023/01/29 02:09:34;;;;;;;8.30;4.63;;;1.10;1.00;;;;;;6098280;23;20208;-89
2023/01/29 02:12:05;;;;;;;8.87;5.30;;;1.10;1.00;;;;;;6097691;23;20224;-90
2023/01/29 02:14:37;;;;;;;8.83;5.43;;;1.10;1.00;;;;;;6098058;23;20656;-89
2023/01/29 02:17:05;;;;;;;7.93;5.07;;;1.10;1.00;;;;;;6098131;23;20180;-89
2023/01/29 02:19:47;;;;;;;10.47;5.73;;;1.10;1.00;;;;;;6098341;23;20178;-89
2023/01/29 02:22:29;;;;;;;7.73;5.20;;;1.10;1.00;;;;;;6097961;23;20596;-89
2023/01/29 02:25:30;;;;;;;11.87;5.50;;;1.10;1.00;;;;;;6098373;23;20209;-89
2023/01/29 02:28:21;;;;;;;10.83;4.23;;;1.10;1.00;;;;;;6098061;23;20235;-89
2023/01/29 02:30:59;;;;;;;9.63;4.80;;;1.10;1.00;;;;;;6097435;23;20605;-89
2023/01/29 02:33:36;;;;;;;7.97;5.73;;;1.20;1.00;;;;;;6097682;23;20640;-89
2023/01/29 02:36:14;;;;;;;11.33;5.73;;;1.10;1.00;;;;;;6098114;23;20542;-89
2023/01/29 02:38:47;;;;;;;10.70;5.40;;;1.10;1.00;;;;;;6098265;23;20162;-89
2023/01/29 02:41:24;;;;;;;9.03;5.60;;;1.10;1.00;;;;;;6098104;23;20543;-89
2023/01/29 02:43:59;;;;;;;8.47;5.43;;;1.10;1.00;;;;;;6098059;23;20158;-90
2023/01/29 02:46:32;;;;;;;10.27;5.30;;;1.10;1.00;;;;;;6097594;23;20207;-89
2023/01/29 02:49:06;;;;;;;11.80;5.83;;;1.10;1.00;;;;;;6098079;23;20171;-90
2023/01/29 02:51:38;;;;;;;11.67;5.80;;;1.10;1.00;;;;;;6098145;23;20204;-89
2023/01/29 02:54:13;;;;;;;8.07;5.67;;;1.10;1.00;;;;;;6097860;23;20657;-89
2023/01/29 02:56:48;;;;;;;10.67;6.20;;;1.10;1.00;;;;;;6097935;23;20240;-89
2023/01/29 02:59:19;;;;;;;12.77;6.53;;;1.20;1.00;;;;;;6097753;23;20164;-90
2023/01/29 03:01:51;;;;;;;11.47;6.33;;;1.20;1.00;;;;;;6098068;23;20163;-89
2023/01/29 03:04:26;;;;;;;16.70;6.80;;;1.10;1.00;;;;;;6097865;23;20160;-89
2023/01/29 03:06:57;;;;;;;11.97;6.10;;;1.10;1.00;;;;;;6098044;23;20475;-90
2023/01/29 03:09:30;;;;;;;10.77;6.17;;;1.10;1.00;;;;;;6098092;23;20160;-89
2023/01/29 03:12:17;;;;;;;12.33;7.17;;;1.20;1.00;;;;;;6097646;23;20201;-89
2023/01/29 03:17:40;;;;;;;11.70;5.87;;;1.10;1.00;;;;;;6090265;23;20173;-89
2023/01/29 03:20:12;;;;;;;10.57;6.73;;;1.10;1.00;;;;;;6097518;23;20165;-90
2023/01/29 03:22:41;;;;;;;11.57;6.57;;;1.10;1.00;;;;;;6098090;23;20181;-90
2023/01/29 03:33:40;;;;;;;10.00;6.40;;;1.10;38.90;;;;;;6098020;23;20223;-89
2023/01/29 03:36:14;;;;;;;12.30;7.33;;;1.10;86.80;;;;;;6097774;23;20149;-89
2023/01/29 03:38:42;;;;;;;11.60;6.90;;;1.10;99.90;;;;;;6097487;23;20543;-89
2023/01/29 03:41:14;;;;;;;12.30;6.97;;;1.10;99.90;;;;;;6097867;23;20181;-89
2023/01/29 03:43:51;;;;;;;15.87;7.27;;;1.00;99.90;;;;;;6099627;23;20158;-90
2023/01/29 03:46:28;;;;;;;20.13;8.67;;;1.00;99.90;;;;;;6099479;23;20603;-90
2023/01/29 03:49:01;;;;;;;14.43;7.70;;;1.00;99.90;;;;;;6099814;23;20551;-89
2023/01/29 03:51:33;;;;;;;18.93;7.97;;;1.00;99.90;;;;;;6099868;23;20164;-89
2023/01/29 03:54:07;;;;;;;12.97;7.40;;;1.10;99.90;;;;;;6099214;23;20237;-89
2023/01/29 03:56:47;;;;;;;15.37;8.37;;;1.00;99.90;;;;;;6099717;23;20216;-89
2023/01/29 03:59:22;;;;;;;14.53;8.80;;;1.00;99.90;;;;;;6099409;23;20161;-90
2023/01/29 04:01:54;;;;;;;13.80;8.00;;;1.00;1.00;;;;;;6099675;23;20219;-89
2023/01/29 04:04:24;;;;;;;17.97;8.60;;;1.00;1.00;;;;;;6099357;23;20157;-89
2023/01/29 04:06:55;;;;;;;17.53;8.47;;;1.00;1.00;;;;;;6099268;23;20690;-89
2023/01/29 04:09:29;;;;;;;13.50;8.10;;;1.00;1.00;;;;;;6099651;23;20157;-89
2023/01/29 04:12:02;;;;;;;16.37;8.17;;;1.00;1.00;;;;;;6099181;23;20565;-89
2023/01/29 04:14:31;;;;;;;13.53;7.80;;;1.00;1.00;;;;;;6099340;23;20193;-89
2023/01/29 04:17:03;;;;;;;15.07;8.77;;;1.00;1.00;;;;;;6099338;23;20754;-89
2023/01/29 04:19:30;;;;;;;14.47;8.77;;;1.00;1.00;;;;;;6099175;23;20221;-88
2023/01/29 04:22:05;;;;;;;20.53;10.17;;;1.00;1.00;;;;;;6099596;23;20554;-90
2023/01/29 04:24:32;;;;;;;14.60;8.00;;;1.00;14.60;;;;;;6099399;23;20156;-89
2023/01/29 04:27:08;;;;;;;17.93;9.73;;;1.00;26.70;;;;;;6098867;23;20228;-89
2023/01/29 04:29:48;;;;;;;17.23;9.77;;;1.00;99.90;;;;;;6098778;23;20162;-89
2023/01/29 04:32:26;;;;;;;15.20;9.60;;;1.00;99.90;;;;;;6098534;23;20539;-89
2023/01/29 04:35:01;;;;;;;15.30;8.40;;;1.10;99.90;;;;;;6098743;23;20208;-90
2023/01/29 04:37:38;;;;;;;17.13;9.33;;;1.10;99.90;;;;;;6098132;23;20165;-89
2023/01/29 04:40:18;;;;;;;16.53;9.93;;;1.10;99.90;;;;;;6098684;23;20533;-89
2023/01/29 04:42:51;;;;;;;14.13;8.20;;;1.10;99.90;;;;;;6098352;23;20162;-89
2023/01/29 04:45:27;;;;;;;14.93;9.33;;;1.10;99.90;;;;;;6099473;23;20228;-90
2023/01/29 04:48:06;;;;;;;21.70;10.80;;;1.10;99.90;;;;;;6098429;23;20616;-90
2023/01/29 04:50:38;;;;;;;15.70;9.43;;;1.10;99.90;;;;;;6098914;23;20600;-89
2023/01/29 04:53:10;;;;;;;14.33;9.07;;;1.10;99.90;;;;;;6098091;23;20487;-89
2023/01/29 04:55:42;;;;;;;19.73;9.80;;;1.10;99.90;;;;;;6097940;23;20606;-89
2023/01/29 04:58:16;;;;;;;21.70;10.37;;;1.10;99.90;;;;;;6098574;23;20161;-89
2023/01/29 05:00:45;;;;;;;17.97;9.90;;;1.10;99.90;;;;;;6098372;23;20159;-89
2023/01/29 05:03:15;;;;;;;21.23;9.80;;;1.10;1.00;;;;;;6098598;23;20230;-89
2023/01/29 05:05:46;;;;;;;18.40;9.87;;;1.10;1.00;;;;;;6098792;23;20161;-90
2023/01/29 05:08:17;;;;;;;18.27;10.33;;;1.10;1.00;;;;;;6098236;23;20251;-89
2023/01/29 05:10:45;;;;;;;17.27;10.67;;;1.10;1.00;;;;;;6097946;23;20684;-91
2023/01/29 05:13:14;;;;;;;20.00;10.37;;;1.10;1.00;;;;;;6098238;23;20244;-89
2023/01/29 05:15:47;;;;;;;16.33;9.77;;;1.10;1.00;;;;;;6098418;23;20189;-90
2023/01/29 05:18:16;;;;;;;22.27;9.80;;;1.10;1.00;;;;;;6098617;23;20157;-89
2023/01/29 05:20:44;;;;;;;19.00;9.70;;;1.10;1.00;;;;;;6097723;23;20766;-90
2023/01/29 05:23:16;;;;;;;19.50;10.43;;;1.10;1.00;;;;;;6098349;23;20176;-90
2023/01/29 05:25:44;;;;;;;18.80;10.30;;;1.10;1.00;;;;;;6098189;23;20216;-90
2023/01/29 05:28:15;;;;;;;21.10;10.40;;;1.10;1.00;;;;;;6098351;23;20178;-89
2023/01/29 05:30:43;;;;;;;19.70;10.20;;;1.20;1.00;;;;;;6097639;23;20249;-89
2023/01/29 05:33:14;;;;;;;18.10;10.10;;;1.20;1.00;;;;;;6098504;23;20177;-89
2023/01/29 05:35:42;;;;;;;21.37;10.67;;;1.20;1.00;;;;;;6097944;23;20253;-90
2023/01/29 05:38:10;;;;;;;17.07;9.77;;;1.20;1.00;;;;;;6097860;23;20177;-89
2023/01/29 05:40:37;;;;;;;19.67;9.97;;;1.20;10.60;;;;;;6097557;23;20200;-89
2023/01/29 05:43:05;;;;;;;17.03;9.27;;;1.20;33.60;;;;;;6097801;23;20176;-89
2023/01/29 05:45:32;;;;;;;18.57;10.70;;;1.20;51.20;;;;;;6097781;23;20179;-89
2023/01/29 05:48:00;;;;;;;17.47;9.87;;;1.20;54.40;;;;;;6098211;23;20178;-90
2023/01/29 05:50:27;;;;;;;20.50;11.10;;;1.30;78.80;;;;;;6098186;23;20177;-89
2023/01/29 05:53:00;;;;;;;19.60;10.67;;;1.30;93.70;;;;;;6098250;23;20182;-89
2023/01/29 05:55:28;;;;;;;18.60;9.93;;;1.30;99.90;;;;;;6097542;23;20194;-89
2023/01/29 05:57:55;;;;;;;22.17;11.17;;;1.30;99.90;;;;;;6098218;23;20181;-89
2023/01/29 06:00:22;;;;;;;21.40;11.43;;;1.30;99.90;;;;;;6098424;23;20172;-90
2023/01/29 06:02:49;;;;;;;18.50;10.87;;;1.30;99.90;;;;;;6098081;23;20210;-89
2023/01/29 06:05:16;;;;;;;22.27;11.83;;;1.30;99.90;;;;;;6097681;23;20551;-89
2023/01/29 06:07:45;;;;;;;20.40;11.90;;;1.30;99.90;;;;;;6097510;23;20254;-90
2023/01/29 06:10:15;;;;;;;25.40;13.17;;;1.30;99.90;;;;;;6098237;23;20182;-89
2023/01/29 06:12:43;;;;;;;22.30;11.70;;;1.30;99.90;;;;;;6097799;23;20199;-89
2023/01/29 06:15:11;;;;;;;23.43;12.00;;;1.40;99.90;;;;;;6097906;23;20197;-90
2023/01/29 06:17:38;;;;;;;25.60;13.27;;;1.30;99.90;;;;;;6097999;23;20178;-89
2023/01/29 06:20:06;;;;;;;25.67;12.20;;;1.30;99.90;;;;;;6098121;23;20178;-90
2023/01/29 06:22:33;;;;;;;21.93;12.10;;;1.30;99.90;;;;;;6097703;23;20228;-90
2023/01/29 06:25:00;;;;;;;21.17;11.53;;;1.30;99.90;;;;;;6097936;23;20173;-89
2023/01/29 06:27:29;;;;;;;25.77;12.23;;;1.30;1.00;;;;;;6097579;23;20176;-90
2023/01/29 06:29:55;;;;;;;22.73;11.67;;;1.30;1.00;;;;;;6098515;23;20240;-90
2023/01/29 06:32:22;;;;;;;27.53;12.67;;;1.30;1.00;;;;;;6098111;23;20227;-90
2023/01/29 06:34:49;;;;;;;27.47;12.63;;;1.30;1.00;;;;;;6097454;23;20243;-89
2023/01/29 06:37:16;;;;;;;23.90;12.97;;;1.30;1.00;;;;;;6097229;23;20698;-89
2023/01/29 06:39:43;;;;;;;24.17;13.17;;;1.30;1.00;;;;;;6097307;23;20239;-89
2023/01/29 06:42:10;;;;;;;24.67;12.40;;;1.30;1.00;;;;;;6097343;23;20173;-89
2023/01/29 06:44:39;;;;;;;24.63;13.27;;;1.30;1.00;;;;;;6097551;23;20202;-89
2023/01/29 06:47:06;;;;;;;23.27;12.33;;;1.30;1.00;;;;;;6097226;23;20169;-89
2023/01/29 06:49:33;;;;;;;28.30;13.73;;;1.30;1.00;;;;;;6097218;23;20229;-89
2023/01/29 06:52:00;;;;;;;26.60;13.53;;;1.30;1.00;;;;;;6097208;23;20171;-89
2023/01/29 06:54:27;;;;;;;26.63;12.77;;;1.40;1.00;;;;;;6097720;23;20185;-90
2023/01/29 06:56:55;;;;;;;27.63;14.67;;;1.40;1.00;;;;;;6097867;23;20168;-90
2023/01/29 06:59:22;;;;;;;24.87;13.27;;;1.40;1.00;;;;;;6097018;23;20563;-89
2023/01/29 07:01:50;;;;;;;23.67;11.97;;;1.40;1.00;;;;;;6097301;23;20475;-89
2023/01/29 07:04:17;;;;;;;23.47;13.00;;;1.40;1.00;;;;;;6097284;23;20555;-89
2023/01/29 07:06:44;;;;;;;23.57;13.20;;;1.40;1.00;;;;;;6097096;23;20171;-90
2023/01/29 07:09:13;;;;;;;26.87;13.90;;;1.40;1.00;;;;;;6097550;23;20172;-90
2023/01/29 07:11:40;;;;;;;22.97;12.83;;;1.50;1.00;;;;;;6097321;23;20180;-90
2023/01/29 07:14:07;;;;;;;22.43;12.47;;;1.50;1.00;;;;;;6097164;23;20635;-89
2023/01/29 07:16:35;;;;;;;24.50;13.07;;;1.50;1.00;;;;;;6096839;23;20168;-90
2023/01/29 07:19:03;;;;;;;20.67;11.53;;;1.50;1.00;;;;;;6097117;23;20479;-88
2023/01/29 07:21:30;;;;;;;22.50;12.30;;;1.50;1.00;;;;;;6097335;23;20179;-88
2023/01/29 07:23:57;;;;;;;26.83;13.27;;;1.50;1.00;;;;;;6096955;23;20168;-89
2023/01/29 07:26:24;;;;;;;24.10;12.40;;;1.50;1.00;;;;;;6096905;23;20492;-89
2023/01/29 07:28:51;;;;;;;26.23;13.23;;;1.50;1.00;;;;;;6097191;23;20235;-88
2023/01/29 07:31:18;;;;;;;24.37;12.73;;;1.60;1.00;;;;;;6097246;23;20628;-89
2023/01/29 07:33:45;;;;;;;27.70;13.27;;;1.60;1.00;;;;;;6097004;23;20228;-90
2023/01/29 07:36:14;;;;;;;26.57;13.20;;;1.60;1.00;;;;;;6096838;23;20233;-90
2023/01/29 07:38:41;;;;;;;26.33;13.47;;;1.60;1.00;;;;;;6096818;23;20177;-89
2023/01/29 07:41:10;;;;;;;29.23;13.83;;;1.60;1.00;;;;;;6096807;23;20548;-89
2023/01/29 07:43:37;;;;;;;31.93;14.50;;;1.60;1.00;;;;;;6096804;23;20172;-88
2023/01/29 07:46:05;;;;;;;29.93;14.10;;;1.70;1.00;;;;;;6096600;23;20170;-89
2023/01/29 07:48:32;;;;;;;31.20;14.73;;;1.70;1.00;;;;;;6097314;23;20176;-89
2023/01/29 07:50:59;;;;;;;29.57;14.17;;;1.70;1.00;;;;;;6097260;23;20176;-89
2023/01/29 07:53:28;;;;;;;33.23;15.00;;;1.70;1.00;;;;;;6096484;23;20546;-88
2023/01/29 07:55:56;;;;;;;29.77;14.40;;;1.80;1.00;;;;;;6096751;23;20194;-89
2023/01/29 07:58:23;;;;;;;32.43;13.67;;;1.80;1.00;;;;;;6096417;23;20230;-90
2023/01/29 08:00:50;;;;;;;31.23;13.77;;;1.80;1.00;;;;;;6096820;23;20178;-88
2023/01/29 08:03:19;;;;;;;32.93;14.37;;;1.80;1.00;;;;;;6097195;23;20177;-88
2023/01/29 08:05:47;;;;;;;31.17;13.87;;;1.80;1.00;;;;;;6096583;23;20698;-89
2023/01/29 08:08:14;;;;;;;31.93;14.50;;;1.90;1.00;;;;;;6096828;23;20222;-88
2023/01/29 08:10:43;;;;;;;39.73;16.83;;;1.90;1.00;;;;;;6096561;23;20173;-88
2023/01/29 08:13:10;;;;;;;35.83;14.77;;;1.90;1.00;;;;;;6096583;23;20265;-89
2023/01/29 08:15:37;;;;;;;37.17;15.07;;;1.90;1.00;;;;;;6097129;23;20190;-90
2023/01/29 08:18:04;;;;;;;43.73;16.77;;;2.00;1.00;;;;;;6096870;23;20700;-89
2023/01/29 08:20:31;;;;;;;40.27;15.37;;;2.00;1.00;;;;;;6096403;23;20233;-89
2023/01/29 08:23:03;;;;;;;35.50;14.70;;;2.00;1.00;;;;;;6097212;23;20177;-89
2023/01/29 08:25:30;;;;;;;35.30;15.60;;;2.10;1.00;;;;;;6096222;23;20257;-89
2023/01/29 08:27:59;;;;;;;31.10;15.33;;;2.10;1.00;;;;;;6096787;23;20624;-89
2023/01/29 08:30:27;;;;;;;35.00;15.10;;;2.10;1.00;;;;;;6098556;23;20698;-90
2023/01/29 08:32:54;;;;;;;37.93;14.53;;;2.10;1.00;;;;;;6098643;23;20237;-90
2023/01/29 08:35:21;;;;;;;34.57;15.33;;;2.20;1.00;;;;;;6098688;23;20189;-89
2023/01/29 08:37:54;;;;;;;47.20;15.37;;;2.20;1.00;;;;;;6098515;23;20199;-89
2023/01/29 08:40:22;;;;;;;37.53;14.90;;;2.20;1.00;;;;;;6098669;23;20164;-89
2023/01/29 08:42:49;;;;;;;35.23;14.70;;;2.20;1.00;;;;;;6098756;23;20620;-89
2023/01/29 08:45:18;;;;;;;46.03;16.70;;;2.20;1.00;;;;;;6099394;23;20549;-90
2023/01/29 08:47:46;;;;;;;36.27;15.13;;;2.20;1.00;;;;;;6097284;23;20173;-90
2023/01/29 08:50:14;;;;;;;40.13;14.73;;;2.20;1.00;;;;;;6097350;23;20175;-91
2023/01/29 08:52:41;;;;;;;33.70;15.13;;;2.20;1.00;;;;;;6097448;23;20173;-90
2023/01/29 08:55:08;;;;;;;44.63;15.90;;;2.20;1.00;;;;;;6095762;23;20194;-89
2023/01/29 08:57:35;;;;;;;36.23;15.67;;;2.20;1.00;;;;;;6096896;23;20178;-91
2023/01/29 09:00:04;;;;;;;41.53;15.43;;;2.20;1.00;;;;;;6098065;23;20174;-90
2023/01/29 09:02:32;;;;;;;41.47;15.17;;;2.20;1.00;;;;;;6097505;23;20635;-90
2023/01/29 09:04:59;;;;;;;39.67;15.10;;;2.20;1.00;;;;;;6098319;23;20174;-91
2023/01/29 09:07:26;;;;;;;40.40;15.50;;;2.30;1.00;;;;;;6098427;23;20560;-90
2023/01/29 09:09:54;;;;;;;34.90;14.00;;;2.30;1.00;;;;;;6098450;23;20229;-91
2023/01/29 09:12:21;;;;;;;31.90;14.93;;;2.30;1.00;;;;;;6098448;23;20205;-91
2023/01/29 09:14:48;;;;;;;33.20;14.13;;;2.30;1.00;;;;;;6098026;23;20244;-90
2023/01/29 09:17:15;;;;;;;44.03;17.70;;;2.30;1.00;;;;;;6098013;23;20177;-91
2023/01/29 09:19:43;;;;;;;42.43;17.70;;;2.30;1.00;;;;;;6098259;23;20172;-91
2023/01/29 09:22:11;;;;;;;55.97;24.63;;;2.30;1.00;;;;;;6098766;23;20700;-90
2023/01/29 09:24:38;;;;;;;44.40;19.03;;;2.40;3.30;;;;;;6098744;23;20171;-88
2023/01/29 09:27:05;;;;;;;45.03;20.47;;;2.40;4.80;;;;;;6098519;23;20292;-90
2023/01/29 09:29:32;;;;;;;44.37;18.33;;;2.40;1.00;;;;;;6098184;23;20610;-89
2023/01/29 09:31:59;;;;;;;46.73;20.97;;;2.50;1.00;;;;;;6099094;23;20170;-90
2023/01/29 09:34:26;;;;;;;58.70;27.00;;;2.60;1.00;;;;;;6098178;23;20221;-91
2023/01/29 09:36:54;;;;;;;37.37;18.87;;;2.60;1.00;;;;;;6098169;23;20175;-91
2023/01/29 09:39:21;;;;;;;35.90;16.60;;;2.70;1.00;;;;;;6097839;23;20183;-91
2023/01/29 09:41:56;;;;;;;41.73;19.50;;;2.70;1.00;;;;;;6098066;23;20629;-90
2023/01/29 09:44:38;;;;;;;35.43;16.83;;;2.70;1.00;;;;;;6097022;23;20227;-90
2023/01/29 09:47:11;;;;;;;33.37;15.40;;;2.70;1.00;;;;;;6097626;23;20665;-90
2023/01/29 09:49:41;;;;;;;32.43;16.30;;;2.80;1.00;;;;;;6097876;23;20162;-90
2023/01/29 09:52:15;;;;;;;30.83;15.57;;;2.80;1.00;;;;;;6098075;23;20154;-90
2023/01/29 09:54:51;;;;;;;33.37;17.03;;;2.80;1.00;;;;;;6098018;23;20235;-91
2023/01/29 09:57:23;;;;;;;33.70;16.43;;;2.80;1.00;;;;;;6098252;23;20596;-90
2023/01/29 09:59:50;;;;;;;33.43;16.23;;;2.80;1.00;;;;;;6098307;23;20310;-90
2023/01/29 10:02:40;;;;;;;32.73;16.53;;;2.80;1.00;;;;;;6098389;23;20175;-91
2023/01/29 10:05:26;;;;;;;32.27;16.10;;;2.80;1.00;;;;;;6098037;23;20629;-90
2023/01/29 10:08:19;;;;;;;30.40;16.13;;;2.90;1.00;;;;;;6097986;23;20604;-90
2023/01/29 10:10:51;;;;;;;38.60;17.97;;;2.90;1.00;;;;;;6097949;23;20211;-90
2023/01/29 10:13:29;;;;;;;37.30;18.57;;;2.90;1.00;;;;;;6097929;23;20753;-91
2023/01/29 10:16:14;;;;;;;38.23;20.37;;;3.00;1.00;;;;;;6097386;23;20186;-91
2023/01/29 10:19:10;;;;;;;32.33;17.10;;;3.00;1.00;;;;;;6098266;23;20211;-89
2023/01/29 10:21:58;;;;;;;32.97;17.00;;;3.00;99.90;;;;;;6096602;23;20630;-91
2023/01/29 10:24:37;;;;;;;31.80;16.47;;;3.00;99.90;;;;;;6098612;23;20214;-91
2023/01/29 10:27:13;;;;;;;32.97;16.77;;;3.00;99.90;;;;;;6098308;23;20167;-90
2023/01/29 10:29:42;;;;;;;35.83;16.30;;;2.90;99.90;;;;;;6098972;23;20211;-90
2023/01/29 10:32:15;;;;;;;34.07;17.30;;;2.90;99.90;;;;;;6098233;23;20231;-90
2023/01/29 10:34:47;;;;;;;33.23;17.47;;;2.90;99.90;;;;;;6098061;23;20201;-89
2023/01/29 10:37:18;;;;;;;43.57;21.30;;;2.90;1.00;;;;;;6098430;23;20211;-92
2023/01/29 10:39:46;;;;;;;43.97;23.40;;;3.00;1.00;;;;;;6098402;23;20680;-92
2023/01/29 10:42:24;;;;;;;31.67;17.60;;;3.00;1.00;;;;;;6098081;23;20644;-90
2023/01/29 10:45:03;;;;;;;35.83;19.23;;;3.00;1.00;;;;;;6097441;23;20166;-90
2023/01/29 10:48:03;;;;;;;36.03;18.90;;;3.10;1.00;;;;;;6097669;23;20174;-90
2023/01/29 10:50:45;;;;;;;34.73;18.70;;;3.30;1.00;;;;;;6098149;23;20175;-90
2023/01/29 10:53:33;;;;;;;33.23;17.17;;;3.30;99.90;;;;;;6098190;23;20219;-91
2023/01/29 10:56:24;;;;;;;32.70;16.83;;;3.30;99.90;;;;;;6098086;23;20711;-90
2023/01/29 10:58:59;;;;;;;28.73;15.70;;;3.30;95.70;;;;;;6096979;23;20171;-89
2023/01/29 11:01:29;;;;;;;31.57;15.50;;;3.40;99.90;;;;;;6097128;23;20175;-90
2023/01/29 11:04:01;;;;;;;32.07;18.27;;;3.50;99.90;;;;;;6097134;23;20505;-90
2023/01/29 11:06:31;;;;;;;30.23;16.13;;;3.60;99.90;;;;;;6097471;23;20187;-91
2023/01/29 11:09:08;;;;;;;28.33;15.23;;;3.80;1.00;;;;;;6098199;23;20175;-91
2023/01/29 11:11:43;;;;;;;28.70;16.63;;;3.80;1.00;;;;;;6097634;23;20242;-90
2023/01/29 11:14:13;;;;;;;29.23;15.93;;;3.80;1.00;;;;;;6097620;23;20211;-90
2023/01/29 11:16:42;;;;;;;34.40;17.40;;;3.90;1.00;;;;;;6097868;23;20191;-92
2023/01/29 11:19:09;;;;;;;31.87;18.37;;;3.80;1.00;;;;;;6097946;23;20226;-89
2023/01/29 11:21:53;;;;;;;31.10;16.53;;;3.70;1.00;;;;;;6098063;23;20234;-90
2023/01/29 11:24:20;;;;;;;35.30;15.93;;;3.70;1.00;;;;;;6098245;23;20159;-91
2023/01/29 11:26:50;;;;;;;31.03;15.53;;;3.80;1.00;;;;;;6097508;23;20656;-91
2023/01/29 11:29:38;;;;;;;35.13;17.00;;;3.80;1.00;;;;;;6097946;23;20175;-91
2023/01/29 11:32:08;;;;;;;30.97;16.20;;;3.80;1.00;;;;;;6098121;23;20227;-91
2023/01/29 11:34:55;;;;;;;35.63;17.20;;;3.80;1.00;;;;;;6098297;23;20176;-91
2023/01/29 11:37:22;;;;;;;32.20;16.70;;;3.70;1.00;;;;;;6098315;23;20218;-91
2023/01/29 11:39:50;;;;;;;32.47;15.97;;;3.70;1.00;;;;;;6098447;23;20549;-91
2023/01/29 11:42:22;;;;;;;36.43;17.37;;;3.60;1.00;;;;;;6097809;23;20183;-90
2023/01/29 11:44:49;;;;;;;37.17;16.83;;;3.60;1.00;;;;;;6097976;23;20159;-90
2023/01/29 11:47:20;;;;;;;32.73;16.17;;;3.50;1.00;;;;;;6097919;23;20219;-90
2023/01/29 11:49:49;;;;;;;36.27;17.50;;;3.60;1.00;;;;;;6098167;23;20156;-90
2023/01/29 11:52:18;;;;;;;38.13;17.40;;;3.50;1.00;;;;;;6097789;23;20230;-90
2023/01/29 11:54:49;;;;;;;36.13;17.30;;;3.60;1.00;;;;;;6097726;23;20176;-90
2023/01/29 11:57:28;;;;;;;38.30;18.17;;;3.60;1.00;;;;;;6098141;23;20176;-89
2023/01/29 11:59:59;;;;;;;35.17;16.97;;;3.50;1.00;;;;;;6097727;23;20164;-90
2023/01/29 12:02:32;;;;;;;32.23;16.70;;;3.60;1.00;;;;;;6097905;23;20254;-91
2023/01/29 12:05:01;;;;;;;38.60;17.83;;;3.50;1.00;;;;;;6099542;23;20160;-90
2023/01/29 12:07:30;;;;;;;36.10;17.63;;;3.50;1.00;;;;;;6099851;23;20176;-90
2023/01/29 12:09:58;;;;;;;36.23;18.30;;;3.50;1.00;;;;;;6099667;23;20556;-90
2023/01/29 12:12:39;;;;;;;36.03;17.57;;;3.50;1.00;;;;;;6099568;23;20195;-90
2023/01/29 12:15:19;;;;;;;38.87;18.83;;;3.40;1.00;;;;;;6099087;23;20174;-90
2023/01/29 12:18:07;;;;;;;39.57;18.43;;;3.40;64.30;;;;;;6098946;23;20238;-90
2023/01/29 12:20:39;;;;;;;40.73;18.30;;;3.50;1.00;;;;;;6098914;23;20163;-91
2023/01/29 12:23:17;;;;;;;38.43;17.67;;;3.60;1.00;;;;;;6098862;23;20164;-90
2023/01/29 12:25:52;;;;;;;37.93;19.23;;;3.60;1.00;;;;;;6098833;23;20207;-90
2023/01/29 12:28:37;;;;;;;34.73;18.43;;;3.70;1.00;;;;;;6099460;23;20222;-91
2023/01/29 12:31:26;;;;;;;35.70;17.67;;;3.70;1.00;;;;;;6099559;23;20159;-90
2023/01/29 12:34:00;;;;;;;34.77;17.60;;;3.70;1.00;;;;;;6098228;23;20194;-90
2023/01/29 12:36:31;;;;;;;35.03;17.60;;;3.80;1.00;;;;;;6098784;23;20179;-89
2023/01/29 12:38:58;;;;;;;32.87;16.83;;;3.80;1.00;;;;;;6099119;23;20657;-89
2023/01/29 12:41:33;;;;;;;33.57;17.20;;;3.80;1.00;;;;;;6098156;23;20175;-90
2023/01/29 12:44:07;;;;;;;33.63;17.90;;;3.90;1.00;;;;;;6098818;23;20155;-90
2023/01/29 12:46:40;;;;;;;32.87;16.43;;;3.80;1.00;;;;;;6098504;23;20155;-89
2023/01/29 12:49:15;;;;;;;31.23;15.67;;;3.90;1.00;;;;;;6098124;23;20493;-89
2023/01/29 12:51:49;;;;;;;30.67;15.20;;;3.90;1.00;;;;;;6098593;23;20786;-89
2023/01/29 12:54:21;;;;;;;29.43;16.30;;;3.80;1.00;;;;;;6098004;23;20163;-89
2023/01/29 12:56:51;;;;;;;28.97;14.50;;;3.80;1.00;;;;;;6098080;23;20657;-89
2023/01/29 12:59:26;;;;;;;26.33;13.90;;;3.80;1.00;;;;;;6098340;23;20195;-90
2023/01/29 13:01:58;;;;;;;31.17;16.00;;;3.70;1.00;;;;;;6099108;23;20466;-93
2023/01/29 13:04:33;;;;;;;25.33;13.10;;;3.70;1.00;;;;;;6098015;23;20164;-92
2023/01/29 13:07:09;;;;;;;24.60;12.57;;;3.70;1.00;;;;;;6099516;23;20156;-92
2023/01/29 13:09:39;;;;;;;28.30;14.87;;;3.60;1.00;;;;;;6099019;23;20163;-93
2023/01/29 13:12:11;;;;;;;29.90;14.50;;;3.60;1.00;;;;;;6099221;23;20191;-92
2023/01/29 13:14:46;;;;;;;37.73;18.37;;;3.50;99.90;;;;;;6098614;23;20160;-93
2023/01/29 13:17:21;;;;;;;32.63;16.33;;;3.50;99.90;;;;;;6098546;23;20716;-93
2023/01/29 13:19:51;;;;;;;31.40;15.83;;;3.50;99.90;;;;;;6098702;23;20159;-92
2023/01/29 13:22:23;;;;;;;34.17;15.77;;;3.50;99.90;;;;;;6098707;23;20167;-92
2023/01/29 13:24:50;;;;;;;35.37;16.97;;;3.50;99.90;;;;;;6098454;23;20160;-93
2023/01/29 13:27:23;;;;;;;30.60;14.53;;;3.50;99.90;;;;;;6098630;23;20234;-93
2023/01/29 13:29:52;;;;;;;33.67;16.03;;;3.40;99.90;;;;;;6098034;23;20206;-91
2023/01/29 13:32:27;;;;;;;28.43;15.40;;;3.40;99.90;;;;;;6097894;23;20618;-92
2023/01/29 13:34:56;;;;;;;29.70;15.10;;;3.40;99.90;;;;;;6097220;23;20673;-92
2023/01/29 13:37:33;;;;;;;29.37;15.27;;;3.40;99.90;;;;;;6098178;23;20202;-92